Ferndale, New York
Current Conditions -  °F | °C
As of 9:35 AM on Saturday 22 Nov 2014 (Local Time) from KMSV Reporting Station
Clear Clear  
Wind Chill: -8°   Ceiling: Unl
Heat Index: -4°   Visibility: 10mi
Dew Point: -11°   Wind: 7mph
Humidity: 59%   Direction: 240°WSW
Pressure: 30.33"   Gusts: NA
Location:  41.77°N, 74.74°W
Report Text: KMSV 221435Z AUTO 24006KT 10SM CLR M04/M11 A3033 RMK AO1
Loading
Personal Weather Stations






























Interactive Weather Map New forecast layout! Learn more

10-Day Weather Forecast

Advertisements
Track Severe Weather on mobile